createdAt,value
2023-01-18T00:01:10.547Z,60.15
2023-01-18T00:03:38.835Z,61.82
2023-01-18T00:06:10.402Z,65.12
2023-01-18T00:08:39.456Z,68.64
2023-01-18T00:11:08.836Z,67.48
2023-01-18T00:13:36.402Z,65.82
2023-01-18T00:16:10.640Z,65.52
2023-01-18T00:18:38.279Z,63.98
2023-01-18T00:21:08.449Z,63.58
2023-01-18T00:23:36.318Z,61.71
2023-01-18T00:26:09.108Z,61.84
2023-01-18T00:28:36.955Z,61.66
2023-01-18T00:31:21.297Z,60.79
2023-01-18T00:33:50.009Z,59.88
2023-01-18T00:36:18.249Z,58.73
2023-01-18T00:38:51.813Z,56.25
2023-01-18T00:41:19.741Z,57.13
2023-01-18T00:43:47.201Z,58.67
2023-01-18T00:46:16.613Z,60.95
2023-01-18T00:48:44.419Z,63.98
2023-01-18T00:51:16.434Z,68.03
2023-01-18T00:53:46.023Z,68.03
2023-01-18T00:56:16.550Z,67.12
2023-01-18T00:58:43.383Z,65.57
2023-01-18T01:01:11.102Z,63.52
2023-01-18T01:03:57.373Z,62.07
2023-01-18T01:06:47.269Z,63.37
2023-01-18T01:09:22.128Z,63.24
2023-01-18T01:12:08.147Z,62.67
2023-01-18T01:14:56.825Z,60.98
2023-01-18T01:17:42.759Z,60.58
2023-01-18T01:20:30.002Z,61.16
2023-01-18T01:23:15.740Z,60.10
2023-01-18T01:26:01.692Z,59.90
2023-01-18T01:28:28.563Z,57.97
2023-01-18T01:31:03.288Z,57.88
2023-01-18T01:33:31.829Z,59.14
2023-01-18T01:36:01.725Z,61.03
2023-01-18T01:38:29.608Z,65.00
2023-01-18T01:41:17.811Z,67.88
2023-01-18T01:43:49.932Z,66.67
2023-01-18T01:46:46.805Z,66.16
2023-01-18T01:49:21.726Z,65.53
2023-01-18T01:51:54.734Z,64.64
2023-01-18T01:54:29.163Z,63.58
2023-01-18T01:57:07.627Z,62.84
2023-01-18T01:59:37.872Z,62.56
2023-01-18T02:02:05.747Z,62.11
2023-01-18T02:04:34.106Z,62.79
2023-01-18T02:07:01.444Z,62.52
2023-01-18T02:09:28.275Z,61.65
2023-01-18T02:11:56.195Z,61.61
2023-01-18T02:14:27.695Z,60.73
2023-01-18T02:17:19.640Z,61.37
2023-01-18T02:20:24.609Z,61.16
2023-01-18T02:23:09.986Z,60.67
2023-01-18T02:25:36.718Z,61.03
2023-01-18T02:28:20.085Z,61.41
2023-01-18T02:31:11.136Z,60.12
2023-01-18T02:33:38.031Z,61.09
2023-01-18T02:36:06.488Z,60.18
2023-01-18T02:38:44.691Z,60.35
2023-01-18T02:41:20.305Z,60.36
2023-01-18T02:44:10.066Z,60.64
2023-01-18T02:46:39.065Z,61.30
2023-01-18T02:49:09.240Z,60.76
2023-01-18T02:51:37.328Z,60.47
2023-01-18T02:54:08.750Z,60.30
2023-01-18T02:56:41.534Z,60.35
2023-01-18T02:59:14.232Z,60.60
2023-01-18T03:01:49.801Z,60.79
2023-01-18T03:04:23.058Z,60.43
2023-01-18T03:06:57.882Z,60.41
2023-01-18T03:09:27.704Z,60.65
2023-01-18T03:12:12.345Z,60.44
2023-01-18T03:14:55.579Z,60.12
2023-01-18T03:17:34.295Z,59.74
2023-01-18T03:20:10.104Z,56.88
2023-01-18T03:22:57.625Z,56.41
2023-01-18T03:25:34.222Z,58.81
2023-01-18T03:28:25.874Z,62.09
2023-01-18T03:31:16.291Z,67.59
2023-01-18T03:33:49.958Z,68.73
2023-01-18T03:36:30.824Z,65.78
2023-01-18T03:39:07.898Z,62.97
2023-01-18T03:41:43.163Z,62.04
2023-01-18T03:44:15.298Z,62.38
2023-01-18T03:46:44.047Z,61.49
2023-01-18T03:49:11.852Z,60.81
2023-01-18T03:52:02.347Z,60.40
2023-01-18T03:54:35.608Z,60.62
2023-01-18T03:57:33.510Z,61.17
2023-01-18T04:00:02.413Z,61.57
2023-01-18T04:02:29.815Z,61.78
2023-01-18T04:05:03.719Z,62.20
2023-01-18T04:07:33.668Z,61.71
2023-01-18T04:10:00.928Z,61.91
2023-01-18T04:12:28.588Z,61.97
2023-01-18T04:14:55.415Z,61.49
2023-01-18T04:17:22.257Z,61.80
2023-01-18T04:19:49.205Z,61.19
2023-01-18T04:22:16.957Z,61.61
2023-01-18T04:24:44.007Z,61.43
2023-01-18T04:27:11.564Z,61.77
2023-01-18T04:29:39.132Z,62.01
2023-01-18T04:32:06.165Z,62.31
2023-01-18T04:34:33.962Z,62.82
2023-01-18T04:37:00.875Z,62.21
2023-01-18T04:39:27.706Z,62.64
2023-01-18T04:41:56.365Z,63.79
2023-01-18T04:44:24.385Z,63.65
2023-01-18T04:46:51.527Z,62.65
2023-01-18T04:49:18.517Z,61.67
2023-01-18T04:51:47.245Z,61.31
2023-01-18T04:54:17.166Z,60.70
2023-01-18T04:56:44.106Z,60.15
2023-01-18T04:59:16.042Z,59.90
2023-01-18T05:01:43.920Z,57.69
2023-01-18T05:04:11.389Z,56.15
2023-01-18T05:06:38.344Z,57.89
2023-01-18T05:09:05.571Z,59.56
2023-01-18T05:11:32.606Z,61.04
2023-01-18T05:13:59.649Z,63.52
2023-01-18T05:16:26.640Z,67.15
2023-01-18T05:18:53.635Z,68.04
2023-01-18T05:21:20.684Z,67.09
2023-01-18T05:23:47.728Z,66.39
2023-01-18T05:26:21.005Z,65.68
2023-01-18T05:28:49.462Z,65.24
2023-01-18T05:31:18.953Z,64.92
2023-01-18T05:33:45.856Z,64.16
2023-01-18T05:36:13.131Z,63.82
2023-01-18T05:38:40.238Z,63.36
2023-01-18T05:41:07.084Z,62.76
2023-01-18T05:43:35.741Z,62.33
2023-01-18T05:46:02.845Z,61.55
2023-01-18T05:48:30.609Z,61.53
2023-01-18T05:50:57.508Z,61.73
2023-01-18T05:53:24.426Z,61.73
2023-01-18T05:55:59.057Z,60.78
2023-01-18T05:58:27.705Z,61.58
2023-01-18T06:00:56.635Z,61.84
2023-01-18T06:03:25.371Z,61.73
2023-01-18T06:05:54.088Z,61.29
2023-01-18T06:08:21.290Z,60.87
2023-01-18T06:10:59.175Z,61.69
2023-01-18T06:13:28.493Z,60.95
2023-01-18T06:15:57.053Z,61.10
2023-01-18T06:18:26.494Z,61.21
2023-01-18T06:20:55.250Z,60.79
2023-01-18T06:23:22.228Z,61.10
2023-01-18T06:25:49.470Z,60.76
2023-01-18T06:28:16.871Z,60.18
2023-01-18T06:30:43.934Z,59.92
2023-01-18T06:33:10.766Z,57.75
2023-01-18T06:35:38.747Z,56.02
2023-01-18T06:38:06.734Z,57.63
2023-01-18T06:40:33.747Z,59.50
2023-01-18T06:43:00.958Z,61.07
2023-01-18T06:45:29.763Z,64.46
2023-01-18T06:47:56.923Z,68.80
2023-01-18T06:50:23.884Z,68.42
2023-01-18T06:52:51.679Z,67.72
2023-01-18T06:55:20.011Z,66.68
2023-01-18T06:57:48.078Z,65.35
2023-01-18T07:00:17.162Z,64.11
2023-01-18T07:02:44.356Z,63.31
2023-01-18T07:05:11.667Z,62.82
2023-01-18T07:07:38.519Z,62.18
2023-01-18T07:10:06.144Z,61.74
2023-01-18T07:12:33.112Z,61.38
2023-01-18T07:15:04.935Z,61.34
2023-01-18T07:17:36.836Z,61.31
2023-01-18T07:20:05.369Z,61.24
2023-01-18T07:22:32.281Z,60.78
2023-01-18T07:24:59.316Z,60.05
2023-01-18T07:27:27.054Z,56.95
2023-01-18T07:29:55.756Z,55.58
2023-01-18T07:32:22.782Z,56.70
2023-01-18T07:34:49.836Z,58.19
2023-01-18T07:37:16.996Z,59.66
2023-01-18T07:39:44.024Z,59.91
2023-01-18T07:42:11.915Z,61.30
2023-01-18T07:44:39.082Z,65.25
2023-01-18T07:47:08.292Z,70.22
2023-01-18T07:49:35.271Z,70.95
2023-01-18T07:52:02.215Z,69.91
2023-01-18T07:54:29.484Z,68.20
2023-01-18T07:56:56.440Z,66.57
2023-01-18T07:59:23.811Z,65.17
2023-01-18T08:01:51.054Z,64.13
2023-01-18T08:04:17.963Z,63.16
2023-01-18T08:06:44.916Z,62.42
2023-01-18T08:09:11.961Z,62.18
2023-01-18T08:11:38.917Z,61.40
2023-01-18T08:14:05.839Z,61.07
2023-01-18T08:16:32.894Z,60.59
2023-01-18T08:18:59.786Z,60.15
2023-01-18T08:21:26.996Z,57.78
2023-01-18T08:23:54.014Z,55.73
2023-01-18T08:26:20.996Z,56.83
2023-01-18T08:28:48.452Z,58.53
2023-01-18T08:31:20.083Z,60.05
2023-01-18T08:33:49.161Z,60.75
2023-01-18T08:36:19.136Z,63.98
2023-01-18T08:38:51.616Z,69.99
2023-01-18T08:41:20.367Z,68.83
2023-01-18T08:43:51.347Z,66.40
2023-01-18T08:46:19.028Z,64.83
2023-01-18T08:48:50.054Z,63.61
2023-01-18T08:51:18.901Z,62.67
2023-01-18T08:53:47.026Z,62.33
2023-01-18T08:56:14.262Z,61.52
2023-01-18T08:58:41.444Z,60.64
2023-01-18T09:01:09.544Z,57.86
2023-01-18T09:03:37.781Z,55.40
2023-01-18T09:06:12.768Z,56.09
2023-01-18T09:08:40.326Z,58.22
2023-01-18T09:11:10.752Z,60.36
2023-01-18T09:14:00.276Z,63.71
2023-01-18T09:16:31.922Z,68.58
2023-01-18T09:19:02.322Z,67.84
2023-01-18T09:21:40.146Z,66.03
2023-01-18T09:24:08.285Z,64.44
2023-01-18T09:26:35.594Z,63.42
2023-01-18T09:29:02.973Z,62.69
2023-01-18T09:31:31.031Z,62.16
2023-01-18T09:34:17.496Z,60.99
2023-01-18T09:36:45.427Z,60.21
2023-01-18T09:39:12.368Z,57.41
2023-01-18T09:42:01.845Z,56.27
2023-01-18T09:44:34.881Z,57.96
2023-01-18T09:47:05.274Z,59.49
2023-01-18T09:49:52.569Z,60.82
2023-01-18T09:52:29.336Z,61.17
2023-01-18T09:55:20.049Z,65.64
2023-01-18T09:58:26.010Z,70.00
2023-01-18T10:00:57.924Z,68.87
2023-01-18T10:03:33.513Z,67.12
2023-01-18T10:06:09.864Z,65.68
2023-01-18T10:08:54.337Z,64.52
2023-01-18T10:11:27.817Z,63.54
2023-01-18T10:14:05.522Z,62.99
2023-01-18T10:16:35.263Z,62.26
2023-01-18T10:19:03.417Z,61.78
2023-01-18T10:21:45.525Z,61.09
2023-01-18T10:24:28.196Z,60.41
2023-01-18T10:27:11.560Z,60.31
2023-01-18T10:30:16.658Z,57.55
2023-01-18T10:32:51.323Z,56.02
2023-01-18T10:35:24.414Z,57.99
2023-01-18T10:37:52.809Z,59.55
2023-01-18T10:40:20.018Z,60.19
2023-01-18T10:42:50.333Z,61.50
2023-01-18T10:45:37.825Z,65.65
2023-01-18T10:48:32.531Z,71.81
2023-01-18T10:51:03.144Z,71.24
2023-01-18T10:53:31.963Z,69.58
2023-01-18T10:56:19.546Z,67.39
2023-01-18T10:58:49.530Z,65.80
2023-01-18T11:01:27.703Z,64.97
2023-01-18T11:04:09.288Z,64.05
2023-01-18T11:06:45.690Z,62.92
2023-01-18T11:09:52.128Z,62.37
2023-01-18T11:12:39.289Z,62.02
2023-01-18T11:15:15.151Z,61.52
2023-01-18T11:17:56.727Z,61.07
2023-01-18T11:20:30.079Z,60.69
2023-01-18T11:23:01.095Z,60.59
2023-01-18T11:25:56.567Z,60.33
2023-01-18T11:28:30.314Z,60.04
2023-01-18T11:31:22.839Z,57.92
2023-01-18T11:33:56.048Z,56.29
2023-01-18T11:36:38.904Z,57.49
2023-01-18T11:39:22.006Z,59.06
2023-01-18T11:41:49.574Z,60.79
2023-01-18T11:44:16.384Z,64.81
2023-01-18T11:46:48.236Z,69.20
2023-01-18T11:49:38.090Z,69.75
2023-01-18T11:52:42.646Z,68.16
2023-01-18T11:55:35.694Z,66.46
2023-01-18T11:58:05.592Z,65.22
2023-01-18T12:00:49.549Z,64.45
2023-01-18T12:03:32.501Z,63.61
2023-01-18T12:06:10.987Z,62.90
2023-01-18T12:08:59.634Z,62.36
2023-01-18T12:11:46.011Z,61.96
2023-01-18T12:14:28.228Z,61.63
2023-01-18T12:17:36.928Z,61.10
2023-01-18T12:20:36.457Z,60.96
2023-01-18T12:23:40.393Z,60.71
2023-01-18T12:26:26.886Z,60.53
2023-01-18T12:29:07.735Z,60.51
2023-01-18T12:31:37.738Z,60.29
2023-01-18T12:34:13.840Z,60.07
2023-01-18T12:36:52.195Z,60.07
2023-01-18T12:39:22.649Z,60.32
2023-01-18T12:41:59.849Z,59.79
2023-01-18T12:45:03.130Z,59.57
2023-01-18T12:47:35.438Z,60.02
2023-01-18T12:50:14.620Z,59.66
2023-01-18T12:52:49.708Z,60.14
2023-01-18T12:55:21.825Z,60.36
2023-01-18T12:57:56.927Z,60.38
2023-01-18T13:00:30.192Z,60.00
2023-01-18T13:02:58.494Z,60.47
2023-01-18T13:05:43.602Z,61.10
2023-01-18T13:08:21.485Z,61.01
2023-01-18T13:10:50.371Z,60.79
2023-01-18T13:13:26.323Z,61.80
2023-01-18T13:16:13.084Z,61.30
2023-01-18T13:18:48.252Z,60.95
2023-01-18T13:21:41.736Z,61.68
2023-01-18T13:24:12.115Z,60.62
2023-01-18T13:26:40.489Z,61.08
2023-01-18T13:29:10.756Z,60.98
2023-01-18T13:31:38.585Z,60.64
2023-01-18T13:34:31.860Z,60.56
2023-01-18T13:37:13.951Z,60.84
2023-01-18T13:39:48.042Z,60.88
2023-01-18T13:42:15.026Z,60.82
2023-01-18T13:44:46.108Z,60.69
2023-01-18T13:47:32.166Z,60.99
2023-01-18T13:49:59.404Z,60.61
2023-01-18T13:52:35.879Z,60.55
2023-01-18T13:55:24.576Z,60.32
2023-01-18T13:57:56.584Z,60.47
2023-01-18T14:00:26.029Z,60.72
2023-01-18T14:02:58.371Z,60.61
2023-01-18T14:05:43.119Z,60.89
2023-01-18T14:08:22.551Z,60.85
2023-01-18T14:10:53.539Z,60.80
2023-01-18T14:13:46.808Z,60.82
2023-01-18T14:16:24.876Z,60.97
2023-01-18T14:18:55.661Z,60.95
2023-01-18T14:21:37.590Z,60.35
2023-01-18T14:24:29.509Z,60.28
2023-01-18T14:27:00.032Z,60.34
2023-01-18T14:29:48.083Z,60.46
2023-01-18T14:32:24.408Z,60.49
2023-01-18T14:35:15.941Z,60.39
2023-01-18T14:37:43.108Z,60.20
2023-01-18T14:40:13.128Z,60.18
2023-01-18T14:43:01.501Z,60.02
2023-01-18T14:45:35.864Z,59.92
2023-01-18T14:48:08.347Z,59.64
2023-01-18T14:50:40.414Z,57.59
2023-01-18T14:53:17.372Z,56.10
2023-01-18T14:56:02.337Z,59.24
2023-01-18T14:58:35.234Z,59.86
2023-01-18T15:01:02.392Z,63.50
2023-01-18T15:03:31.387Z,68.65
2023-01-18T15:06:21.979Z,68.45
2023-01-18T15:08:50.291Z,65.94
2023-01-18T15:11:17.498Z,64.89
2023-01-18T15:13:50.007Z,64.04
2023-01-18T15:16:24.444Z,63.03
2023-01-18T15:18:54.095Z,62.19
2023-01-18T15:21:34.888Z,61.61
2023-01-18T15:24:06.755Z,60.98
2023-01-18T15:26:35.780Z,60.66
2023-01-18T15:29:20.489Z,60.36
2023-01-18T15:31:59.776Z,60.26
2023-01-18T15:34:35.841Z,60.12
2023-01-18T15:37:10.343Z,59.90
2023-01-18T15:39:49.146Z,57.38
2023-01-18T15:42:18.093Z,55.02
2023-01-18T15:44:52.116Z,57.17
2023-01-18T15:47:28.907Z,59.00
2023-01-18T15:50:02.010Z,59.86
2023-01-18T15:53:02.187Z,66.16
2023-01-18T15:55:41.416Z,70.88
2023-01-18T15:58:15.249Z,67.22
2023-01-18T16:00:45.817Z,64.62
2023-01-18T16:03:24.059Z,63.61
2023-01-18T16:06:23.763Z,62.93
2023-01-18T16:09:21.066Z,62.02
2023-01-18T16:11:54.686Z,61.24
2023-01-18T16:14:35.993Z,60.56
2023-01-18T16:17:05.246Z,60.00
2023-01-18T16:19:36.483Z,60.02
2023-01-18T16:22:06.907Z,57.37
2023-01-18T16:25:02.485Z,55.11
2023-01-18T16:27:31.932Z,55.31
2023-01-18T16:30:01.816Z,57.12
2023-01-18T16:32:35.091Z,58.86
2023-01-18T16:35:13.178Z,61.23
2023-01-18T16:37:47.294Z,64.66
2023-01-18T16:40:17.288Z,69.08
2023-01-18T16:43:03.223Z,69.48
2023-01-18T16:45:33.877Z,66.33
2023-01-18T16:48:01.407Z,65.05
2023-01-18T16:50:29.208Z,63.07
2023-01-18T16:52:56.695Z,60.91
2023-01-18T16:55:23.852Z,60.19
2023-01-18T16:57:51.884Z,57.80
2023-01-18T17:00:21.486Z,59.47
2023-01-18T17:02:49.183Z,61.38
2023-01-18T17:05:17.225Z,64.38
2023-01-18T17:07:45.021Z,65.80
2023-01-18T17:10:31.698Z,65.43
2023-01-18T17:13:00.686Z,64.16
2023-01-18T17:15:30.322Z,63.13
2023-01-18T17:17:57.533Z,62.29
2023-01-18T17:20:27.132Z,61.72
2023-01-18T17:22:55.936Z,61.29
2023-01-18T17:25:24.525Z,60.45
2023-01-18T17:27:52.411Z,59.73
2023-01-18T17:30:22.193Z,57.61
2023-01-18T17:32:50.326Z,55.16
2023-01-18T17:35:22.091Z,55.72
2023-01-18T17:37:54.409Z,57.16
2023-01-18T17:40:38.690Z,57.75
2023-01-18T17:43:11.583Z,59.21
2023-01-18T17:45:42.182Z,60.53
2023-01-18T17:48:11.531Z,64.46
2023-01-18T17:50:40.903Z,69.17
2023-01-18T17:53:08.979Z,69.34
2023-01-18T17:55:36.600Z,67.35
2023-01-18T17:58:04.091Z,65.30
2023-01-18T18:00:31.196Z,63.69
2023-01-18T18:02:59.370Z,62.44
2023-01-18T18:05:28.714Z,61.68
2023-01-18T18:07:55.811Z,61.05
2023-01-18T18:10:22.903Z,60.49
2023-01-18T18:12:50.312Z,60.15
2023-01-18T18:15:17.803Z,59.59
2023-01-18T18:17:44.890Z,57.28
2023-01-18T18:20:12.451Z,54.96
2023-01-18T18:22:39.767Z,55.24
2023-01-18T18:25:08.571Z,56.31
2023-01-18T18:27:51.482Z,57.62
2023-01-18T18:30:19.046Z,58.89
2023-01-18T18:32:46.225Z,60.50
2023-01-18T18:35:25.625Z,64.04
2023-01-18T18:37:54.628Z,68.46
2023-01-18T18:40:22.592Z,68.58
2023-01-18T18:43:01.120Z,67.25
2023-01-18T18:45:33.854Z,65.71
2023-01-18T18:48:01.850Z,63.88
2023-01-18T18:50:29.767Z,62.96
2023-01-18T18:52:58.142Z,61.69
2023-01-18T18:55:25.622Z,61.59
2023-01-18T18:57:52.937Z,61.00
2023-01-18T19:00:20.728Z,60.34
2023-01-18T19:02:47.784Z,59.95
2023-01-18T19:05:15.861Z,58.24
2023-01-18T19:07:43.851Z,55.83
2023-01-18T19:10:13.759Z,57.10
2023-01-18T19:12:41.290Z,57.73
2023-01-18T19:15:09.424Z,58.73
2023-01-18T19:17:42.266Z,60.91
2023-01-18T19:20:13.917Z,65.07
2023-01-18T19:22:41.266Z,70.51
2023-01-18T19:25:09.373Z,68.79
2023-01-18T19:27:36.380Z,66.03
2023-01-18T19:30:03.906Z,63.73
2023-01-18T19:32:31.218Z,62.28
2023-01-18T19:34:58.170Z,60.50
2023-01-18T19:37:25.313Z,56.84
2023-01-18T19:39:52.466Z,53.70
2023-01-18T19:42:19.826Z,53.79
2023-01-18T19:44:47.422Z,54.70
2023-01-18T19:47:14.391Z,55.75
2023-01-18T19:49:43.449Z,57.29
2023-01-18T19:52:10.451Z,58.36
2023-01-18T19:54:37.725Z,59.35
2023-01-18T19:57:04.642Z,60.22
2023-01-18T19:59:31.673Z,61.05
2023-01-18T20:01:58.904Z,64.89
2023-01-18T20:04:26.391Z,72.88
2023-01-18T20:06:53.452Z,71.57
2023-01-18T20:09:23.369Z,68.59
2023-01-18T20:11:54.860Z,65.88
2023-01-18T20:14:24.392Z,64.04
2023-01-18T20:16:53.397Z,62.21
2023-01-18T20:19:20.367Z,60.84
2023-01-18T20:21:47.820Z,57.79
2023-01-18T20:24:15.026Z,55.65
2023-01-18T20:26:42.483Z,58.27
2023-01-18T20:29:10.368Z,58.48
2023-01-18T20:31:39.614Z,58.92
2023-01-18T20:34:07.833Z,61.39
2023-01-18T20:36:37.980Z,65.11
2023-01-18T20:39:06.040Z,70.17
2023-01-18T20:41:33.169Z,68.14
2023-01-18T20:44:00.795Z,65.21
2023-01-18T20:46:28.240Z,63.57
2023-01-18T20:48:55.323Z,61.44
2023-01-18T20:51:22.575Z,60.38
2023-01-18T20:53:49.928Z,58.07
2023-01-18T20:56:28.847Z,54.85
2023-01-18T20:58:58.460Z,54.64
2023-01-18T21:01:31.799Z,55.92
2023-01-18T21:04:01.428Z,57.46
2023-01-18T21:06:29.703Z,57.74
2023-01-18T21:08:58.871Z,58.88
2023-01-18T21:11:27.198Z,59.50
2023-01-18T21:13:56.094Z,60.47
2023-01-18T21:16:25.956Z,61.25
2023-01-18T21:18:54.261Z,65.48
2023-01-18T21:21:21.210Z,73.14
2023-01-18T21:23:48.269Z,72.16
2023-01-18T21:26:15.353Z,68.73
2023-01-18T21:28:42.632Z,65.39
2023-01-18T21:31:10.108Z,63.54
2023-01-18T21:33:38.146Z,62.61
2023-01-18T21:36:12.554Z,61.61
2023-01-18T21:38:39.930Z,60.57
2023-01-18T21:41:25.638Z,56.74
2023-01-18T21:44:12.538Z,53.96
2023-01-18T21:46:46.038Z,54.21
2023-01-18T21:49:51.906Z,56.58
2023-01-18T21:52:37.889Z,57.41
2023-01-18T21:55:05.584Z,59.09
2023-01-18T21:57:32.945Z,60.63
2023-01-18T22:00:00.067Z,65.31
2023-01-18T22:02:27.364Z,72.19
2023-01-18T22:05:00.802Z,70.02
2023-01-18T22:07:30.467Z,66.56
2023-01-18T22:10:04.997Z,64.34
2023-01-18T22:12:36.318Z,62.69
2023-01-18T22:15:05.367Z,61.40
2023-01-18T22:17:32.717Z,59.60
2023-01-18T22:20:00.456Z,55.57
2023-01-18T22:22:28.412Z,53.22
2023-01-18T22:24:56.919Z,53.72
2023-01-18T22:27:23.856Z,55.17
2023-01-18T22:29:50.901Z,56.55
2023-01-18T22:32:17.827Z,58.06
2023-01-18T22:34:44.988Z,59.21
2023-01-18T22:37:12.346Z,63.73
2023-01-18T22:39:39.695Z,70.88
2023-01-18T22:42:06.789Z,69.28
2023-01-18T22:44:33.894Z,66.46
2023-01-18T22:47:01.141Z,64.05
2023-01-18T22:49:28.066Z,61.96
2023-01-18T22:51:54.920Z,60.50
2023-01-18T22:54:23.192Z,56.65
2023-01-18T22:56:50.361Z,53.25
2023-01-18T22:59:17.573Z,53.10
2023-01-18T23:01:44.463Z,53.66
2023-01-18T23:04:12.087Z,55.27
2023-01-18T23:06:51.085Z,56.85
2023-01-18T23:09:18.984Z,58.59
2023-01-18T23:11:51.197Z,60.18
2023-01-18T23:14:42.514Z,61.69
2023-01-18T23:17:40.652Z,66.60
2023-01-18T23:20:10.909Z,72.59
2023-01-18T23:22:38.028Z,70.89
2023-01-18T23:25:05.466Z,68.27
2023-01-18T23:27:32.540Z,65.43
2023-01-18T23:29:59.601Z,63.75
2023-01-18T23:32:30.806Z,62.17
2023-01-18T23:34:58.247Z,60.84
2023-01-18T23:37:26.221Z,60.03
2023-01-18T23:40:11.895Z,55.27
2023-01-18T23:42:58.108Z,52.98
2023-01-18T23:45:43.566Z,54.13
2023-01-18T23:48:35.423Z,55.87
2023-01-18T23:51:22.868Z,57.18
2023-01-18T23:54:09.248Z,58.37
2023-01-18T23:56:36.156Z,59.17
2023-01-18T23:59:03.608Z,60.29
